sensor_id;sensor_type;location;lat;lon;timestamp;temperature;humidity
70074;DHT22;57445;51.058;3.698;2023-07-20T00:01:09;18.80;97.90
70074;DHT22;57445;51.058;3.698;2023-07-20T00:03:37;18.20;97.60
70074;DHT22;57445;51.058;3.698;2023-07-20T00:06:04;18.20;97.70
70074;DHT22;57445;51.058;3.698;2023-07-20T00:08:32;18.20;97.80
70074;DHT22;57445;51.058;3.698;2023-07-20T00:11:00;18.20;97.90
70074;DHT22;57445;51.058;3.698;2023-07-20T00:13:27;18.10;98.10
70074;DHT22;57445;51.058;3.698;2023-07-20T00:15:55;18.50;98.10
70074;DHT22;57445;51.058;3.698;2023-07-20T00:18:24;18.20;98.10
70074;DHT22;57445;51.058;3.698;2023-07-20T00:20:52;18.10;98.10
70074;DHT22;57445;51.058;3.698;2023-07-20T00:23:20;18.10;98.30
70074;DHT22;57445;51.058;3.698;2023-07-20T00:25:49;18.00;98.50
70074;DHT22;57445;51.058;3.698;2023-07-20T00:28:16;18.20;98.60
70074;DHT22;57445;51.058;3.698;2023-07-20T00:30:44;18.00;98.60
70074;DHT22;57445;51.058;3.698;2023-07-20T00:33:14;17.90;98.60
70074;DHT22;57445;51.058;3.698;2023-07-20T00:35:43;17.90;98.80
70074;DHT22;57445;51.058;3.698;2023-07-20T00:38:11;17.80;98.90
70074;DHT22;57445;51.058;3.698;2023-07-20T00:40:39;17.80;99.10
70074;DHT22;57445;51.058;3.698;2023-07-20T00:43:09;17.70;99.20
70074;DHT22;57445;51.058;3.698;2023-07-20T00:45:36;17.80;99.20
70074;DHT22;57445;51.058;3.698;2023-07-20T00:48:04;18.00;99.30
70074;DHT22;57445;51.058;3.698;2023-07-20T00:50:34;17.70;99.30
70074;DHT22;57445;51.058;3.698;2023-07-20T00:53:04;17.70;99.20
70074;DHT22;57445;51.058;3.698;2023-07-20T00:55:32;17.70;99.10
70074;DHT22;57445;51.058;3.698;2023-07-20T00:58:00;17.70;99.20
70074;DHT22;57445;51.058;3.698;2023-07-20T01:00:28;17.60;99.30
70074;DHT22;57445;51.058;3.698;2023-07-20T01:02:55;17.50;99.60
70074;DHT22;57445;51.058;3.698;2023-07-20T01:05:30;17.60;99.50
70074;DHT22;57445;51.058;3.698;2023-07-20T01:08:00;17.40;99.60
70074;DHT22;57445;51.058;3.698;2023-07-20T01:10:36;17.50;99.60
70074;DHT22;57445;51.058;3.698;2023-07-20T01:13:07;17.40;99.70
70074;DHT22;57445;51.058;3.698;2023-07-20T01:15:36;17.30;99.90
70074;DHT22;57445;51.058;3.698;2023-07-20T01:18:04;17.30;99.90
70074;DHT22;57445;51.058;3.698;2023-07-20T01:20:33;17.30;99.90
70074;DHT22;57445;51.058;3.698;2023-07-20T01:23:22;17.40;99.90
70074;DHT22;57445;51.058;3.698;2023-07-20T01:26:07;17.40;99.90
70074;DHT22;57445;51.058;3.698;2023-07-20T01:28:54;17.40;99.80
70074;DHT22;57445;51.058;3.698;2023-07-20T01:31:28;17.40;99.70
70074;DHT22;57445;51.058;3.698;2023-07-20T01:33:59;17.40;99.80
70074;DHT22;57445;51.058;3.698;2023-07-20T01:36:30;17.30;99.80
70074;DHT22;57445;51.058;3.698;2023-07-20T01:39:00;17.40;99.70
70074;DHT22;57445;51.058;3.698;2023-07-20T01:41:30;17.40;99.60
70074;DHT22;57445;51.058;3.698;2023-07-20T01:43:58;17.30;99.70
70074;DHT22;57445;51.058;3.698;2023-07-20T01:46:28;17.40;99.70
70074;DHT22;57445;51.058;3.698;2023-07-20T01:48:56;17.40;99.70
70074;DHT22;57445;51.058;3.698;2023-07-20T01:51:24;17.30;99.80
70074;DHT22;57445;51.058;3.698;2023-07-20T01:53:52;17.30;99.80
70074;DHT22;57445;51.058;3.698;2023-07-20T01:56:21;17.60;99.90
70074;DHT22;57445;51.058;3.698;2023-07-20T01:58:51;17.20;99.90
70074;DHT22;57445;51.058;3.698;2023-07-20T02:01:19;17.30;99.90
70074;DHT22;57445;51.058;3.698;2023-07-20T02:03:48;17.30;99.80
70074;DHT22;57445;51.058;3.698;2023-07-20T02:06:17;17.30;99.90
70074;DHT22;57445;51.058;3.698;2023-07-20T02:08:44;17.40;99.90
70074;DHT22;57445;51.058;3.698;2023-07-20T02:11:12;17.40;99.80
70074;DHT22;57445;51.058;3.698;2023-07-20T02:13:41;17.40;99.80
70074;DHT22;57445;51.058;3.698;2023-07-20T02:16:09;17.40;99.90
70074;DHT22;57445;51.058;3.698;2023-07-20T02:18:38;17.30;99.90
70074;DHT22;57445;51.058;3.698;2023-07-20T02:21:07;17.30;99.90
70074;DHT22;57445;51.058;3.698;2023-07-20T02:23:34;17.40;99.90
70074;DHT22;57445;51.058;3.698;2023-07-20T02:26:02;17.60;99.90
70074;DHT22;57445;51.058;3.698;2023-07-20T02:28:30;17.50;99.90
70074;DHT22;57445;51.058;3.698;2023-07-20T02:30:58;17.70;99.80
70074;DHT22;57445;51.058;3.698;2023-07-20T02:33:27;17.70;99.50
70074;DHT22;57445;51.058;3.698;2023-07-20T02:35:54;17.70;99.70
70074;DHT22;57445;51.058;3.698;2023-07-20T02:38:24;17.70;99.50
70074;DHT22;57445;51.058;3.698;2023-07-20T02:40:52;17.80;99.30
70074;DHT22;57445;51.058;3.698;2023-07-20T02:43:20;18.00;99.00
70074;DHT22;57445;51.058;3.698;2023-07-20T02:45:48;17.90;99.00
70074;DHT22;57445;51.058;3.698;2023-07-20T02:48:17;17.90;99.00
70074;DHT22;57445;51.058;3.698;2023-07-20T02:50:45;17.90;99.00
70074;DHT22;57445;51.058;3.698;2023-07-20T02:53:13;17.90;99.10
70074;DHT22;57445;51.058;3.698;2023-07-20T02:55:42;17.80;99.00
70074;DHT22;57445;51.058;3.698;2023-07-20T02:58:10;17.80;99.10
70074;DHT22;57445;51.058;3.698;2023-07-20T03:00:38;17.80;99.20
70074;DHT22;57445;51.058;3.698;2023-07-20T03:03:07;17.80;99.00
70074;DHT22;57445;51.058;3.698;2023-07-20T03:05:35;17.90;98.90
70074;DHT22;57445;51.058;3.698;2023-07-20T03:08:05;18.00;98.80
70074;DHT22;57445;51.058;3.698;2023-07-20T03:10:35;18.00;98.70
70074;DHT22;57445;51.058;3.698;2023-07-20T03:13:07;18.20;98.60
70074;DHT22;57445;51.058;3.698;2023-07-20T03:15:34;18.30;98.10
70074;DHT22;57445;51.058;3.698;2023-07-20T03:18:02;18.40;98.10
70074;DHT22;57445;51.058;3.698;2023-07-20T03:20:31;18.20;98.20
70074;DHT22;57445;51.058;3.698;2023-07-20T03:22:59;18.00;98.50
70074;DHT22;57445;51.058;3.698;2023-07-20T03:25:29;18.00;98.70
70074;DHT22;57445;51.058;3.698;2023-07-20T03:27:56;18.00;98.70
70074;DHT22;57445;51.058;3.698;2023-07-20T03:30:25;18.00;98.60
70074;DHT22;57445;51.058;3.698;2023-07-20T03:32:53;18.10;98.60
70074;DHT22;57445;51.058;3.698;2023-07-20T03:35:20;18.10;98.50
70074;DHT22;57445;51.058;3.698;2023-07-20T03:37:48;18.10;98.50
70074;DHT22;57445;51.058;3.698;2023-07-20T03:40:16;18.10;98.50
70074;DHT22;57445;51.058;3.698;2023-07-20T03:42:45;18.00;98.50
70074;DHT22;57445;51.058;3.698;2023-07-20T03:45:18;17.90;98.70
70074;DHT22;57445;51.058;3.698;2023-07-20T03:47:48;17.90;98.70
70074;DHT22;57445;51.058;3.698;2023-07-20T03:50:15;17.80;98.80
70074;DHT22;57445;51.058;3.698;2023-07-20T03:52:44;17.70;99.00
70074;DHT22;57445;51.058;3.698;2023-07-20T03:55:13;17.50;99.30
70074;DHT22;57445;51.058;3.698;2023-07-20T03:57:40;17.40;99.50
70074;DHT22;57445;51.058;3.698;2023-07-20T04:00:12;17.50;99.50
70074;DHT22;57445;51.058;3.698;2023-07-20T04:02:41;17.60;99.20
70074;DHT22;57445;51.058;3.698;2023-07-20T04:05:10;17.50;99.20
70074;DHT22;57445;51.058;3.698;2023-07-20T04:07:38;17.60;99.20
70074;DHT22;57445;51.058;3.698;2023-07-20T04:10:06;17.80;99.10
70074;DHT22;57445;51.058;3.698;2023-07-20T04:12:34;17.70;98.80
70074;DHT22;57445;51.058;3.698;2023-07-20T04:15:02;17.60;99.20
70074;DHT22;57445;51.058;3.698;2023-07-20T04:17:30;17.50;99.30
70074;DHT22;57445;51.058;3.698;2023-07-20T04:19:58;17.70;99.20
70074;DHT22;57445;51.058;3.698;2023-07-20T04:22:28;17.80;99.10
70074;DHT22;57445;51.058;3.698;2023-07-20T04:24:55;17.70;99.00
70074;DHT22;57445;51.058;3.698;2023-07-20T04:27:23;17.60;99.20
70074;DHT22;57445;51.058;3.698;2023-07-20T04:29:52;17.70;99.10
70074;DHT22;57445;51.058;3.698;2023-07-20T04:32:20;17.40;99.60
70074;DHT22;57445;51.058;3.698;2023-07-20T04:34:48;17.30;99.90
70074;DHT22;57445;51.058;3.698;2023-07-20T04:37:18;17.40;99.90
70074;DHT22;57445;51.058;3.698;2023-07-20T04:39:47;17.50;99.80
70074;DHT22;57445;51.058;3.698;2023-07-20T04:42:15;17.60;99.50
70074;DHT22;57445;51.058;3.698;2023-07-20T04:44:42;17.80;99.30
70074;DHT22;57445;51.058;3.698;2023-07-20T04:47:10;17.90;99.10
70074;DHT22;57445;51.058;3.698;2023-07-20T04:49:38;18.00;99.00
70074;DHT22;57445;51.058;3.698;2023-07-20T04:52:06;18.10;98.60
70074;DHT22;57445;51.058;3.698;2023-07-20T04:54:36;18.20;98.70
70074;DHT22;57445;51.058;3.698;2023-07-20T04:57:11;18.30;98.50
70074;DHT22;57445;51.058;3.698;2023-07-20T04:59:38;18.30;98.30
70074;DHT22;57445;51.058;3.698;2023-07-20T05:02:06;18.40;98.30
70074;DHT22;57445;51.058;3.698;2023-07-20T05:04:34;18.50;98.20
70074;DHT22;57445;51.058;3.698;2023-07-20T05:07:02;18.60;98.10
70074;DHT22;57445;51.058;3.698;2023-07-20T05:09:30;18.70;98.00
70074;DHT22;57445;51.058;3.698;2023-07-20T05:11:58;18.70;97.80
70074;DHT22;57445;51.058;3.698;2023-07-20T05:14:27;18.90;97.70
70074;DHT22;57445;51.058;3.698;2023-07-20T05:16:55;18.90;97.50
70074;DHT22;57445;51.058;3.698;2023-07-20T05:19:24;18.80;97.40
70074;DHT22;57445;51.058;3.698;2023-07-20T05:21:52;18.90;97.50
70074;DHT22;57445;51.058;3.698;2023-07-20T05:24:20;19.00;97.40
70074;DHT22;57445;51.058;3.698;2023-07-20T05:26:48;19.30;97.10
70074;DHT22;57445;51.058;3.698;2023-07-20T05:29:16;19.50;96.60
70074;DHT22;57445;51.058;3.698;2023-07-20T05:31:45;19.70;96.10
70074;DHT22;57445;51.058;3.698;2023-07-20T05:34:13;19.90;95.90
70074;DHT22;57445;51.058;3.698;2023-07-20T05:36:40;20.00;95.70
70074;DHT22;57445;51.058;3.698;2023-07-20T05:39:08;20.10;95.20
70074;DHT22;57445;51.058;3.698;2023-07-20T05:41:37;20.30;95.00
70074;DHT22;57445;51.058;3.698;2023-07-20T05:44:04;20.30;94.90
70074;DHT22;57445;51.058;3.698;2023-07-20T05:46:32;20.50;94.90
70074;DHT22;57445;51.058;3.698;2023-07-20T05:49:01;20.40;94.70
70074;DHT22;57445;51.058;3.698;2023-07-20T05:51:29;20.50;94.50
70074;DHT22;57445;51.058;3.698;2023-07-20T05:53:57;20.60;94.30
70074;DHT22;57445;51.058;3.698;2023-07-20T05:56:24;20.50;94.20
70074;DHT22;57445;51.058;3.698;2023-07-20T05:58:52;20.50;94.30
70074;DHT22;57445;51.058;3.698;2023-07-20T06:01:20;20.60;94.30
70074;DHT22;57445;51.058;3.698;2023-07-20T06:03:47;20.60;94.10
70074;DHT22;57445;51.058;3.698;2023-07-20T06:06:16;20.80;93.90
70074;DHT22;57445;51.058;3.698;2023-07-20T06:08:44;21.00;93.60
70074;DHT22;57445;51.058;3.698;2023-07-20T06:11:12;21.40;93.20
70074;DHT22;57445;51.058;3.698;2023-07-20T06:13:39;21.70;92.60
70074;DHT22;57445;51.058;3.698;2023-07-20T06:16:07;21.80;92.20
70074;DHT22;57445;51.058;3.698;2023-07-20T06:18:34;21.90;91.60
70074;DHT22;57445;51.058;3.698;2023-07-20T06:21:02;22.40;91.60
70074;DHT22;57445;51.058;3.698;2023-07-20T06:23:31;22.10;90.60
70074;DHT22;57445;51.058;3.698;2023-07-20T06:26:00;22.40;90.80
70074;DHT22;57445;51.058;3.698;2023-07-20T06:28:28;22.40;90.40
70074;DHT22;57445;51.058;3.698;2023-07-20T06:30:59;22.60;90.10
70074;DHT22;57445;51.058;3.698;2023-07-20T06:33:27;22.70;89.20
70074;DHT22;57445;51.058;3.698;2023-07-20T06:35:57;22.40;90.00
70074;DHT22;57445;51.058;3.698;2023-07-20T06:38:25;23.60;89.50
70074;DHT22;57445;51.058;3.698;2023-07-20T06:40:55;23.50;84.50
70074;DHT22;57445;51.058;3.698;2023-07-20T06:43:23;22.60;87.20
70074;DHT22;57445;51.058;3.698;2023-07-20T06:45:54;21.70;89.20
70074;DHT22;57445;51.058;3.698;2023-07-20T06:48:22;20.70;91.10
70074;DHT22;57445;51.058;3.698;2023-07-20T06:50:49;20.40;92.10
70074;DHT22;57445;51.058;3.698;2023-07-20T06:53:17;20.60;91.40
70074;DHT22;57445;51.058;3.698;2023-07-20T06:55:44;21.10;91.10
70074;DHT22;57445;51.058;3.698;2023-07-20T06:58:15;21.40;90.50
70074;DHT22;57445;51.058;3.698;2023-07-20T07:00:43;21.70;90.00
70074;DHT22;57445;51.058;3.698;2023-07-20T07:03:11;22.30;89.00
70074;DHT22;57445;51.058;3.698;2023-07-20T07:05:38;22.80;88.80
70074;DHT22;57445;51.058;3.698;2023-07-20T07:08:06;23.40;85.30
70074;DHT22;57445;51.058;3.698;2023-07-20T07:10:35;23.30;85.00
70074;DHT22;57445;51.058;3.698;2023-07-20T07:13:03;23.70;83.50
70074;DHT22;57445;51.058;3.698;2023-07-20T07:15:33;23.80;82.80
70074;DHT22;57445;51.058;3.698;2023-07-20T07:18:01;24.10;80.60
70074;DHT22;57445;51.058;3.698;2023-07-20T07:20:29;23.80;82.00
70074;DHT22;57445;51.058;3.698;2023-07-20T07:22:57;23.70;81.80
70074;DHT22;57445;51.058;3.698;2023-07-20T07:25:24;23.60;81.60
70074;DHT22;57445;51.058;3.698;2023-07-20T07:27:53;24.20;80.90
70074;DHT22;57445;51.058;3.698;2023-07-20T07:30:21;23.90;79.80
70074;DHT22;57445;51.058;3.698;2023-07-20T07:32:50;23.80;80.30
70074;DHT22;57445;51.058;3.698;2023-07-20T07:35:18;24.00;80.30
70074;DHT22;57445;51.058;3.698;2023-07-20T07:37:46;24.10;80.10
70074;DHT22;57445;51.058;3.698;2023-07-20T07:40:14;24.30;79.70
70074;DHT22;57445;51.058;3.698;2023-07-20T07:42:41;24.30;79.60
70074;DHT22;57445;51.058;3.698;2023-07-20T07:45:10;24.50;77.60
70074;DHT22;57445;51.058;3.698;2023-07-20T07:47:39;24.80;76.50
70074;DHT22;57445;51.058;3.698;2023-07-20T07:50:10;25.30;74.80
70074;DHT22;57445;51.058;3.698;2023-07-20T07:52:37;25.30;75.50
70074;DHT22;57445;51.058;3.698;2023-07-20T07:55:06;25.10;75.60
70074;DHT22;57445;51.058;3.698;2023-07-20T07:57:33;24.90;76.70
70074;DHT22;57445;51.058;3.698;2023-07-20T08:00:01;25.00;76.60
70074;DHT22;57445;51.058;3.698;2023-07-20T08:02:29;25.20;74.60
70074;DHT22;57445;51.058;3.698;2023-07-20T08:04:59;25.60;74.50
70074;DHT22;57445;51.058;3.698;2023-07-20T08:07:29;25.80;73.80
70074;DHT22;57445;51.058;3.698;2023-07-20T08:09:57;25.50;73.80
70074;DHT22;57445;51.058;3.698;2023-07-20T08:12:25;25.20;75.40
70074;DHT22;57445;51.058;3.698;2023-07-20T08:14:53;24.00;78.10
70074;DHT22;57445;51.058;3.698;2023-07-20T08:17:20;23.70;78.80
70074;DHT22;57445;51.058;3.698;2023-07-20T08:19:48;24.20;78.00
70074;DHT22;57445;51.058;3.698;2023-07-20T08:22:15;23.60;77.30
70074;DHT22;57445;51.058;3.698;2023-07-20T08:24:46;23.50;79.30
70074;DHT22;57445;51.058;3.698;2023-07-20T08:27:14;23.10;80.20
70074;DHT22;57445;51.058;3.698;2023-07-20T08:29:42;22.60;82.10
70074;DHT22;57445;51.058;3.698;2023-07-20T08:32:10;22.80;81.50
70074;DHT22;57445;51.058;3.698;2023-07-20T08:34:39;23.00;80.60
70074;DHT22;57445;51.058;3.698;2023-07-20T08:37:07;23.50;79.90
70074;DHT22;57445;51.058;3.698;2023-07-20T08:39:36;23.70;78.50
70074;DHT22;57445;51.058;3.698;2023-07-20T08:42:06;23.40;79.10
70074;DHT22;57445;51.058;3.698;2023-07-20T08:44:33;23.30;79.10
70074;DHT22;57445;51.058;3.698;2023-07-20T08:47:02;24.50;75.70
70074;DHT22;57445;51.058;3.698;2023-07-20T08:49:31;25.20;74.30
70074;DHT22;57445;51.058;3.698;2023-07-20T08:52:00;25.30;72.90
70074;DHT22;57445;51.058;3.698;2023-07-20T08:54:30;24.70;74.70
70074;DHT22;57445;51.058;3.698;2023-07-20T08:57:02;24.90;73.70
70074;DHT22;57445;51.058;3.698;2023-07-20T08:59:34;24.90;74.10
70074;DHT22;57445;51.058;3.698;2023-07-20T09:02:04;24.90;71.90
70074;DHT22;57445;51.058;3.698;2023-07-20T09:04:33;24.90;72.70
70074;DHT22;57445;51.058;3.698;2023-07-20T09:07:02;24.90;72.10
70074;DHT22;57445;51.058;3.698;2023-07-20T09:09:29;25.20;71.90
70074;DHT22;57445;51.058;3.698;2023-07-20T09:11:57;24.80;72.30
70074;DHT22;57445;51.058;3.698;2023-07-20T09:14:25;24.80;72.70
70074;DHT22;57445;51.058;3.698;2023-07-20T09:16:54;24.90;71.30
70074;DHT22;57445;51.058;3.698;2023-07-20T09:19:22;24.40;72.70
70074;DHT22;57445;51.058;3.698;2023-07-20T09:21:52;24.60;72.80
70074;DHT22;57445;51.058;3.698;2023-07-20T09:24:20;24.50;71.50
70074;DHT22;57445;51.058;3.698;2023-07-20T09:26:49;24.40;71.80
70074;DHT22;57445;51.058;3.698;2023-07-20T09:29:18;24.40;71.80
70074;DHT22;57445;51.058;3.698;2023-07-20T09:32:00;24.60;71.40
70074;DHT22;57445;51.058;3.698;2023-07-20T09:34:28;25.10;71.90
70074;DHT22;57445;51.058;3.698;2023-07-20T09:36:58;25.50;69.70
70074;DHT22;57445;51.058;3.698;2023-07-20T09:39:26;26.00;68.40
70074;DHT22;57445;51.058;3.698;2023-07-20T09:41:54;26.30;67.30
70074;DHT22;57445;51.058;3.698;2023-07-20T09:44:28;26.20;67.30
70074;DHT22;57445;51.058;3.698;2023-07-20T09:46:56;26.30;67.20
70074;DHT22;57445;51.058;3.698;2023-07-20T09:49:25;26.20;67.70
70074;DHT22;57445;51.058;3.698;2023-07-20T09:51:54;25.40;68.10
70074;DHT22;57445;51.058;3.698;2023-07-20T09:54:22;25.20;68.90
70074;DHT22;57445;51.058;3.698;2023-07-20T09:56:53;25.30;68.80
70074;DHT22;57445;51.058;3.698;2023-07-20T09:59:21;26.00;66.50
70074;DHT22;57445;51.058;3.698;2023-07-20T10:01:49;26.00;66.30
70074;DHT22;57445;51.058;3.698;2023-07-20T10:04:21;24.90;68.40
70074;DHT22;57445;51.058;3.698;2023-07-20T10:06:52;24.80;69.80
70074;DHT22;57445;51.058;3.698;2023-07-20T10:09:22;24.90;68.30
70074;DHT22;57445;51.058;3.698;2023-07-20T10:11:53;25.30;69.20
70074;DHT22;57445;51.058;3.698;2023-07-20T10:14:21;25.80;67.80
70074;DHT22;57445;51.058;3.698;2023-07-20T10:16:51;25.60;67.30
70074;DHT22;57445;51.058;3.698;2023-07-20T10:19:23;25.50;67.90
70074;DHT22;57445;51.058;3.698;2023-07-20T10:22:00;25.40;65.60
70074;DHT22;57445;51.058;3.698;2023-07-20T10:24:32;25.20;66.20
70074;DHT22;57445;51.058;3.698;2023-07-20T10:27:00;25.10;65.50
70074;DHT22;57445;51.058;3.698;2023-07-20T10:29:31;24.80;65.30
70074;DHT22;57445;51.058;3.698;2023-07-20T10:32:00;25.00;65.00
70074;DHT22;57445;51.058;3.698;2023-07-20T10:34:28;25.40;64.40
70074;DHT22;57445;51.058;3.698;2023-07-20T10:36:57;24.70;66.90
70074;DHT22;57445;51.058;3.698;2023-07-20T10:39:27;24.70;67.90
70074;DHT22;57445;51.058;3.698;2023-07-20T10:42:00;24.60;67.70
70074;DHT22;57445;51.058;3.698;2023-07-20T10:44:30;24.50;66.00
70074;DHT22;57445;51.058;3.698;2023-07-20T10:47:01;24.50;67.40
70074;DHT22;57445;51.058;3.698;2023-07-20T10:49:29;25.30;64.90
70074;DHT22;57445;51.058;3.698;2023-07-20T10:52:04;25.90;64.20
70074;DHT22;57445;51.058;3.698;2023-07-20T10:54:47;26.30;62.60
70074;DHT22;57445;51.058;3.698;2023-07-20T10:57:23;27.30;59.70
70074;DHT22;57445;51.058;3.698;2023-07-20T10:59:52;27.70;59.40
70074;DHT22;57445;51.058;3.698;2023-07-20T11:02:42;27.20;60.70
70074;DHT22;57445;51.058;3.698;2023-07-20T11:05:34;27.60;59.40
70074;DHT22;57445;51.058;3.698;2023-07-20T11:08:11;28.30;58.00
70074;DHT22;57445;51.058;3.698;2023-07-20T11:10:39;28.50;57.00
70074;DHT22;57445;51.058;3.698;2023-07-20T11:13:21;28.50;57.00
70074;DHT22;57445;51.058;3.698;2023-07-20T11:16:02;28.20;57.90
70074;DHT22;57445;51.058;3.698;2023-07-20T11:18:33;27.90;58.30
70074;DHT22;57445;51.058;3.698;2023-07-20T11:21:02;27.10;60.10
70074;DHT22;57445;51.058;3.698;2023-07-20T11:23:31;26.80;60.50
70074;DHT22;57445;51.058;3.698;2023-07-20T11:26:00;25.60;62.40
70074;DHT22;57445;51.058;3.698;2023-07-20T11:28:30;25.40;63.60
70074;DHT22;57445;51.058;3.698;2023-07-20T11:30:57;25.40;63.50
70074;DHT22;57445;51.058;3.698;2023-07-20T11:33:25;25.10;63.40
70074;DHT22;57445;51.058;3.698;2023-07-20T11:35:54;25.30;64.00
70074;DHT22;57445;51.058;3.698;2023-07-20T11:38:23;25.80;63.50
70074;DHT22;57445;51.058;3.698;2023-07-20T11:40:52;26.00;63.00
70074;DHT22;57445;51.058;3.698;2023-07-20T11:43:20;26.30;62.90
70074;DHT22;57445;51.058;3.698;2023-07-20T11:45:53;26.20;62.00
70074;DHT22;57445;51.058;3.698;2023-07-20T11:48:20;26.40;62.90
70074;DHT22;57445;51.058;3.698;2023-07-20T11:50:48;26.20;63.20
70074;DHT22;57445;51.058;3.698;2023-07-20T11:53:17;26.30;63.50
70074;DHT22;57445;51.058;3.698;2023-07-20T11:55:45;26.30;63.10
70074;DHT22;57445;51.058;3.698;2023-07-20T11:58:14;26.60;63.70
70074;DHT22;57445;51.058;3.698;2023-07-20T12:00:44;27.20;63.00
70074;DHT22;57445;51.058;3.698;2023-07-20T12:03:12;27.50;62.30
70074;DHT22;57445;51.058;3.698;2023-07-20T12:05:39;27.70;60.90
70074;DHT22;57445;51.058;3.698;2023-07-20T12:08:10;27.60;61.40
70074;DHT22;57445;51.058;3.698;2023-07-20T12:10:39;27.50;61.80
70074;DHT22;57445;51.058;3.698;2023-07-20T12:13:10;27.50;61.80
70074;DHT22;57445;51.058;3.698;2023-07-20T12:15:43;27.90;61.70
70074;DHT22;57445;51.058;3.698;2023-07-20T12:18:11;28.10;60.10
70074;DHT22;57445;51.058;3.698;2023-07-20T12:20:38;28.30;60.10
70074;DHT22;57445;51.058;3.698;2023-07-20T12:23:11;28.40;60.10
70074;DHT22;57445;51.058;3.698;2023-07-20T12:25:40;28.30;60.60
70074;DHT22;57445;51.058;3.698;2023-07-20T12:28:09;28.00;61.20
70074;DHT22;57445;51.058;3.698;2023-07-20T12:30:37;28.70;60.30
70074;DHT22;57445;51.058;3.698;2023-07-20T12:33:06;29.10;59.90
70074;DHT22;57445;51.058;3.698;2023-07-20T12:35:34;29.30;59.50
70074;DHT22;57445;51.058;3.698;2023-07-20T12:38:02;29.00;60.30
70074;DHT22;57445;51.058;3.698;2023-07-20T12:40:30;28.70;60.80
70074;DHT22;57445;51.058;3.698;2023-07-20T12:42:58;28.80;61.00
70074;DHT22;57445;51.058;3.698;2023-07-20T12:45:25;28.50;62.10
70074;DHT22;57445;51.058;3.698;2023-07-20T12:47:53;27.80;61.20
70074;DHT22;57445;51.058;3.698;2023-07-20T12:50:22;28.20;59.60
70074;DHT22;57445;51.058;3.698;2023-07-20T12:52:49;28.50;58.30
70074;DHT22;57445;51.058;3.698;2023-07-20T12:55:17;29.00;57.30
70074;DHT22;57445;51.058;3.698;2023-07-20T12:57:46;28.80;57.70
70074;DHT22;57445;51.058;3.698;2023-07-20T13:00:15;29.00;56.40
70074;DHT22;57445;51.058;3.698;2023-07-20T13:02:43;29.30;56.00
70074;DHT22;57445;51.058;3.698;2023-07-20T13:05:11;29.00;56.20
70074;DHT22;57445;51.058;3.698;2023-07-20T13:07:40;29.00;55.90
70074;DHT22;57445;51.058;3.698;2023-07-20T13:10:09;29.20;56.60
70074;DHT22;57445;51.058;3.698;2023-07-20T13:12:38;28.90;56.70
70074;DHT22;57445;51.058;3.698;2023-07-20T13:15:07;28.60;57.10
70074;DHT22;57445;51.058;3.698;2023-07-20T13:17:36;28.30;58.20
70074;DHT22;57445;51.058;3.698;2023-07-20T13:20:05;28.30;57.90
70074;DHT22;57445;51.058;3.698;2023-07-20T13:22:34;28.50;57.50
70074;DHT22;57445;51.058;3.698;2023-07-20T13:25:03;28.30;57.60
70074;DHT22;57445;51.058;3.698;2023-07-20T13:27:31;27.80;58.20
70074;DHT22;57445;51.058;3.698;2023-07-20T13:29:59;27.50;58.30
70074;DHT22;57445;51.058;3.698;2023-07-20T13:32:27;27.10;59.60
70074;DHT22;57445;51.058;3.698;2023-07-20T13:34:54;26.80;60.10
70074;DHT22;57445;51.058;3.698;2023-07-20T13:37:22;27.00;59.70
70074;DHT22;57445;51.058;3.698;2023-07-20T13:39:50;26.50;60.90
70074;DHT22;57445;51.058;3.698;2023-07-20T13:42:19;25.90;62.70
70074;DHT22;57445;51.058;3.698;2023-07-20T13:44:47;25.60;62.90
70074;DHT22;57445;51.058;3.698;2023-07-20T13:47:15;25.00;64.50
70074;DHT22;57445;51.058;3.698;2023-07-20T13:49:43;24.50;65.70
70074;DHT22;57445;51.058;3.698;2023-07-20T13:52:11;24.00;66.30
70074;DHT22;57445;51.058;3.698;2023-07-20T13:54:38;23.70;67.80
70074;DHT22;57445;51.058;3.698;2023-07-20T13:57:06;23.50;69.40
70074;DHT22;57445;51.058;3.698;2023-07-20T13:59:35;22.80;73.90
70074;DHT22;57445;51.058;3.698;2023-07-20T14:02:03;22.40;79.50
70074;DHT22;57445;51.058;3.698;2023-07-20T14:04:33;22.10;81.90
70074;DHT22;57445;51.058;3.698;2023-07-20T14:07:02;21.60;86.50
70074;DHT22;57445;51.058;3.698;2023-07-20T14:09:29;21.00;87.30
70074;DHT22;57445;51.058;3.698;2023-07-20T14:11:57;20.90;91.20
70074;DHT22;57445;51.058;3.698;2023-07-20T14:14:24;20.50;90.90
70074;DHT22;57445;51.058;3.698;2023-07-20T14:16:54;20.50;91.90
70074;DHT22;57445;51.058;3.698;2023-07-20T14:19:22;20.40;91.50
70074;DHT22;57445;51.058;3.698;2023-07-20T14:21:50;20.60;92.80
70074;DHT22;57445;51.058;3.698;2023-07-20T14:24:18;20.70;93.30
70074;DHT22;57445;51.058;3.698;2023-07-20T14:26:45;21.00;93.30
70074;DHT22;57445;51.058;3.698;2023-07-20T14:29:14;21.00;92.90
70074;DHT22;57445;51.058;3.698;2023-07-20T14:31:44;21.00;92.90
70074;DHT22;57445;51.058;3.698;2023-07-20T14:34:16;21.10;92.90
70074;DHT22;57445;51.058;3.698;2023-07-20T14:36:44;21.10;92.40
70074;DHT22;57445;51.058;3.698;2023-07-20T14:39:12;21.10;92.90
70074;DHT22;57445;51.058;3.698;2023-07-20T14:41:40;21.60;93.40
70074;DHT22;57445;51.058;3.698;2023-07-20T14:44:08;22.20;92.10
70074;DHT22;57445;51.058;3.698;2023-07-20T14:46:36;22.30;90.60
70074;DHT22;57445;51.058;3.698;2023-07-20T14:49:05;22.80;91.20
70074;DHT22;57445;51.058;3.698;2023-07-20T14:51:37;23.20;89.40
70074;DHT22;57445;51.058;3.698;2023-07-20T14:54:09;23.20;87.50
70074;DHT22;57445;51.058;3.698;2023-07-20T14:56:38;23.10;86.20
70074;DHT22;57445;51.058;3.698;2023-07-20T14:59:07;23.10;88.50
70074;DHT22;57445;51.058;3.698;2023-07-20T15:01:35;23.40;87.10
70074;DHT22;57445;51.058;3.698;2023-07-20T15:04:04;23.60;87.50
70074;DHT22;57445;51.058;3.698;2023-07-20T15:06:31;23.70;85.50
70074;DHT22;57445;51.058;3.698;2023-07-20T15:09:00;23.50;86.20
70074;DHT22;57445;51.058;3.698;2023-07-20T15:11:28;23.50;85.60
70074;DHT22;57445;51.058;3.698;2023-07-20T15:13:56;23.20;87.60
70074;DHT22;57445;51.058;3.698;2023-07-20T15:16:24;23.20;88.00
70074;DHT22;57445;51.058;3.698;2023-07-20T15:18:52;23.30;85.80
70074;DHT22;57445;51.058;3.698;2023-07-20T15:21:19;23.30;86.10
70074;DHT22;57445;51.058;3.698;2023-07-20T15:23:47;23.30;86.60
70074;DHT22;57445;51.058;3.698;2023-07-20T15:26:16;23.20;86.80
70074;DHT22;57445;51.058;3.698;2023-07-20T15:28:44;23.20;87.60
70074;DHT22;57445;51.058;3.698;2023-07-20T15:31:11;23.30;86.20
70074;DHT22;57445;51.058;3.698;2023-07-20T15:33:39;23.20;86.80
70074;DHT22;57445;51.058;3.698;2023-07-20T15:36:07;23.30;86.80
70074;DHT22;57445;51.058;3.698;2023-07-20T15:38:35;23.40;87.20
70074;DHT22;57445;51.058;3.698;2023-07-20T15:41:02;23.80;86.30